Time;durP1;ratioP1;P1;durP2;ratioP2;P2;SDS_P1;SDS_P2;PMS_P1;PMS_P2;Temp;Humidity;BMP_temperature;BMP_pressure;BME280_temperature;BME280_humidity;BME280_pressure;Samples;Min_cycle;Max_cycle;Signal;HPM_P1;HPM_P2
2022/01/09 00:03:08;;;;;;;55.10;23.10;;;;;;;-1.72;71.78;97682.93;218439;1279;22746;-69
2022/01/09 00:09:22;;;;;;;50.70;21.20;;;;;;;-1.84;71.86;97665.70;218437;1279;22761;-69
2022/01/09 00:14:55;;;;;;;51.40;22.00;;;;;;;-1.85;72.39;97663.58;218561;1279;22572;-71
2022/01/09 00:26:53;;;;;;;50.90;21.70;;;;;;;-1.77;72.41;97651.65;218707;1279;22592;-70
2022/01/09 00:32:15;;;;;;;52.60;22.90;;;;;;;-1.76;72.68;97648.67;218757;1279;22563;-69
2022/01/09 00:37:38;;;;;;;53.90;23.50;;;;;;;-1.71;72.66;97643.89;218663;1279;26092;-70
2022/01/09 00:43:00;;;;;;;47.20;22.40;;;;;;;-1.61;73.10;97643.95;218660;1279;22582;-71
2022/01/09 00:48:54;;;;;;;47.90;22.00;;;;;;;-1.49;73.02;97641.05;219593;1279;22727;-70
2022/01/09 00:54:53;;;;;;;;;;;;;;;;;;;;;
2022/01/09 01:00:06;;;;;;;42.40;18.40;;;;;;;-1.48;72.68;97627.66;218912;1279;22852;-70
2022/01/09 01:05:51;;;;;;;44.40;19.20;;;;;;;-1.54;72.82;97620.59;218847;1279;22686;-70
2022/01/09 01:11:09;;;;;;;41.00;18.60;;;;;;;-1.52;72.93;97605.36;219127;1279;22586;-71
2022/01/09 01:17:20;;;;;;;;;;;;;;;;;;;;;
2022/01/09 01:23:28;;;;;;;;;;;;;;;;;;;;;
2022/01/09 01:30:11;;;;;;;;;;;;;;;;;;;;;
2022/01/09 01:36:22;;;;;;;;;;;;;;;;;;;;;
2022/01/09 01:42:16;;;;;;;;;;;;;;;;;;;;;
2022/01/09 01:47:44;;;;;;;37.80;16.70;;;;;;;-1.60;73.25;97552.93;219674;1279;22596;-70
2022/01/09 01:53:50;;;;;;;35.10;15.20;;;;;;;-1.60;73.50;97547.79;218570;1279;24265;-70
2022/01/09 01:59:23;;;;;;;31.30;15.50;;;;;;;-1.58;73.81;97541.30;218566;1279;23344;-70
2022/01/09 02:04:48;;;;;;;33.00;15.80;;;;;;;-1.55;73.83;97537.89;218463;1279;24092;-69
2022/01/09 02:10:26;;;;;;;38.60;17.40;;;;;;;-1.55;73.77;97525.80;218470;1279;24249;-70
2022/01/09 02:15:57;;;;;;;43.60;19.30;;;;;;;-1.47;73.87;97530.95;218356;1279;22684;-68
2022/01/09 02:21:52;;;;;;;43.80;19.00;;;;;;;-1.42;73.76;97526.30;218517;1279;24230;-70
2022/01/09 02:27:48;;;;;;;;;;;;;;;;;;;;;
2022/01/09 02:34:06;;;;;;;;;;;;;;;;;;;;;
2022/01/09 02:40:22;;;;;;;38.00;15.70;;;;;;;-1.30;73.49;97494.30;219289;1279;22557;-70
2022/01/09 02:46:12;;;;;;;31.90;15.30;;;;;;;-1.28;73.75;97483.65;218269;1279;25761;-70
2022/01/09 02:52:21;;;;;;;34.50;16.10;;;;;;;-1.24;74.00;97466.95;218562;1279;22590;-69
2022/01/09 02:58:13;;;;;;;33.50;15.00;;;;;;;-1.21;73.92;97459.53;218614;1279;24243;-70
2022/01/09 03:03:54;;;;;;;33.40;15.50;;;;;;;-1.15;74.06;97445.20;218275;1279;22554;-69
2022/01/09 03:09:18;;;;;;;;;;;;;;;;;;;;;
2022/01/09 03:15:28;;;;;;;29.80;13.30;;;;;;;-1.12;73.86;97428.15;218506;1279;22554;-69
2022/01/09 03:21:11;;;;;;;28.80;12.50;;;;;;;-1.10;73.95;97428.28;218732;1279;22904;-70
2022/01/09 03:27:20;;;;;;;25.80;12.00;;;;;;;-1.13;73.91;97424.88;219283;1279;22547;-70
2022/01/09 03:33:11;;;;;;;23.80;11.40;;;;;;;-1.21;73.58;97423.58;218396;1279;22603;-70
2022/01/09 03:38:44;;;;;;;23.60;11.40;;;;;;;-1.26;73.67;97425.42;218576;1279;25269;-69
2022/01/09 03:44:18;;;;;;;28.90;14.20;;;;;;;-1.27;73.57;97425.61;218593;1279;24290;-70
2022/01/09 03:49:40;;;;;;;29.80;14.00;;;;;;;-1.26;73.84;97421.73;218700;1279;23246;-70
2022/01/09 04:00:45;;;;;;;27.70;13.30;;;;;;;-1.10;74.23;97415.30;218636;1278;22629;-70
2022/01/09 04:06:00;;;;;;;27.60;13.10;;;;;;;-1.01;74.06;97414.98;218517;1279;25450;-70
2022/01/09 04:11:27;;;;;;;24.50;12.80;;;;;;;-0.93;74.18;97415.21;218345;1279;25583;-69
2022/01/09 04:16:40;;;;;;;26.30;12.00;;;;;;;-0.84;74.25;97415.41;219553;1277;25476;-70
2022/01/09 04:22:13;;;;;;;25.20;13.20;;;;;;;-0.77;74.13;97410.75;219575;1279;22571;-70
2022/01/09 04:28:36;;;;;;;;;;;;;;;;;;;;;
2022/01/09 04:33:58;;;;;;;;;;;;;;;;;;;;;
2022/01/09 04:40:02;;;;;;;16.00;8.90;;;;;;;-1.00;73.74;97391.55;218939;1279;24460;-69
2022/01/09 04:45:14;;;;;;;20.40;10.40;;;;;;;-1.18;73.63;97393.88;218793;1279;23960;-70
2022/01/09 04:56:30;;;;;;;;;;;;;;;;;;;;;
2022/01/09 05:02:57;;;;;;;18.30;9.30;;;;;;;-1.55;73.72;97395.79;218619;1279;22684;-70
2022/01/09 05:09:32;;;;;;;23.30;11.20;;;;;;;-1.61;74.00;97393.73;218605;1279;22550;-69
2022/01/09 05:16:03;;;;;;;21.30;10.90;;;;;;;-1.65;74.14;97397.46;218446;1279;24733;-69
2022/01/09 05:27:55;;;;;;;19.30;10.20;;;;;;;-1.52;74.38;97408.08;218592;1279;22678;-69
2022/01/09 05:33:39;;;;;;;;;;;;;;;;;;;;;
2022/01/09 05:40:02;;;;;;;16.10;9.20;;;;;;;-1.54;73.99;97413.52;218283;1279;22705;-72
2022/01/09 05:52:16;;;;;;;14.30;8.60;;;;;;;-1.59;73.90;97414.07;218247;1279;25393;-70
2022/01/09 05:58:17;;;;;;;15.20;8.90;;;;;;;-1.68;73.85;97408.97;218176;1279;23069;-69
2022/01/09 06:04:02;;;;;;;19.50;10.20;;;;;;;-1.81;73.68;97414.02;219292;1279;25266;-71
2022/01/09 06:09:28;;;;;;;18.60;9.60;;;;;;;-1.87;74.15;97419.73;219573;1279;22661;-70
2022/01/09 06:15:06;;;;;;;18.00;9.30;;;;;;;-1.85;74.46;97426.69;219482;1279;22573;-71
2022/01/09 06:20:34;;;;;;;18.70;9.70;;;;;;;-1.81;74.34;97423.60;218547;1279;24347;-69
2022/01/09 06:25:54;;;;;;;15.80;8.30;;;;;;;-1.80;74.36;97418.83;218530;1279;26554;-69
2022/01/09 06:31:11;;;;;;;16.70;8.50;;;;;;;-1.90;74.21;97411.82;218542;1279;24266;-70
2022/01/09 06:36:22;;;;;;;16.00;9.70;;;;;;;-2.06;74.16;97408.97;219288;1279;24191;-69
2022/01/09 06:41:44;;;;;;;21.10;9.90;;;;;;;-2.20;74.20;97406.11;218566;1279;22691;-69
2022/01/09 06:47:55;;;;;;;;;;;;;;;;;;;;;
2022/01/09 06:53:31;;;;;;;;;;;;;;;;;;;;;
2022/01/09 06:58:49;;;;;;;19.90;10.60;;;;;;;-2.52;74.66;97391.66;218567;1279;24497;-70
2022/01/09 07:05:03;;;;;;;24.80;13.60;;;;;;;-2.60;74.83;97396.31;218641;1279;25691;-70
2022/01/09 07:10:26;;;;;;;29.30;14.60;;;;;;;-2.62;75.16;97394.13;219033;1279;25602;-69
2022/01/09 07:16:22;;;;;;;40.90;17.40;;;;;;;-2.61;75.02;97399.96;218583;1279;25456;-71
2022/01/09 07:22:06;;;;;;;37.70;17.00;;;;;;;-2.61;75.24;97400.80;218592;1279;22650;-71
2022/01/09 07:27:09;;;;;;;35.40;16.80;;;;;;;-2.58;75.27;97396.55;218607;1279;22652;-70
2022/01/09 07:32:24;;;;;;;;;;;;;;;;;;;;;
2022/01/09 07:37:37;;;;;;;28.30;16.10;;;;;;;-2.51;75.27;97382.88;218822;1279;22625;-71
2022/01/09 07:43:04;;;;;;;27.00;15.10;;;;;;;-2.46;75.35;97384.85;219067;1279;22583;-70
2022/01/09 07:48:23;;;;;;;26.40;14.00;;;;;;;-2.38;75.43;97385.06;218595;1279;22763;-70
2022/01/09 07:54:18;;;;;;;26.20;15.00;;;;;;;-2.29;75.41;97381.80;218610;1279;25629;-70
2022/01/09 07:59:35;;;;;;;25.40;13.30;;;;;;;-2.03;76.03;97378.50;218743;1279;24496;-71
2022/01/09 08:05:08;;;;;;;23.30;11.90;;;;;;;-1.26;76.13;97373.60;218702;1279;22623;-69
2022/01/09 08:10:34;;;;;;;23.30;11.90;;;;;;;-1.10;74.99;97376.35;218632;1279;23873;-70
2022/01/09 08:15:56;;;;;;;24.00;12.90;;;;;;;-1.04;74.35;97367.88;219734;1279;24876;-70
2022/01/09 08:21:01;;;;;;;19.30;11.00;;;;;;;-1.05;74.33;97362.73;219603;1279;94752;-70
2022/01/09 08:27:03;;;;;;;24.30;12.50;;;;;;;-1.03;74.13;97359.44;219610;1279;22565;-70
2022/01/09 08:32:17;;;;;;;23.30;11.30;;;;;;;-0.97;74.11;97349.88;218393;1279;25756;-70
2022/01/09 08:38:25;;;;;;;18.30;9.70;;;;;;;-0.85;74.03;97346.15;218571;1279;26407;-70
2022/01/09 08:44:08;;;;;;;;;;;;;;;;;;;;;
2022/01/09 08:49:46;;;;;;;15.20;8.90;;;;;;;-0.09;75.77;97342.63;218467;1279;24314;-71
2022/01/09 08:55:02;;;;;;;18.40;9.40;;;;;;;1.38;73.91;97341.69;219263;1279;22575;-70
2022/01/09 09:00:46;;;;;;;;;;;;;;;;;;;;;
2022/01/09 09:07:24;;;;;;;;;;;;;;;;;;;;;
2022/01/09 09:12:42;;;;;;;18.80;9.60;;;;;;;0.74;70.36;97327.41;219076;1279;22586;-71
2022/01/09 09:18:10;;;;;;;24.30;10.60;;;;;;;0.59;70.51;97324.81;219402;1279;22558;-67
2022/01/09 09:24:05;;;;;;;;;;;;;;;;;;;;;
2022/01/09 09:29:08;;;;;;;24.30;11.40;;;;;;;0.54;70.20;97326.23;218441;1279;25267;-69
2022/01/09 09:34:23;;;;;;;26.00;13.10;;;;;;;0.62;70.11;97319.66;218789;1279;22901;-71
2022/01/09 09:40:05;;;;;;;;;;;;;;;;;;;;;
2022/01/09 09:45:42;;;;;;;25.80;13.90;;;;;;;0.76;69.87;97317.86;218406;1279;24382;-70
2022/01/09 09:51:06;;;;;;;26.90;13.30;;;;;;;0.83;69.48;97315.66;218342;1279;24063;-70
2022/01/09 09:56:12;;;;;;;31.80;13.90;;;;;;;0.92;69.66;97320.89;218527;1279;22667;-70
2022/01/09 10:01:40;;;;;;;24.80;13.80;;;;;;;1.03;69.23;97319.59;219394;1279;22616;-70
2022/01/09 10:06:56;;;;;;;28.50;14.60;;;;;;;1.11;68.82;97317.92;219238;1279;22668;-70
2022/01/09 10:12:08;;;;;;;27.50;14.70;;;;;;;1.18;68.82;97314.30;219491;1279;22673;-71
2022/01/09 10:17:12;;;;;;;34.20;15.10;;;;;;;1.29;68.50;97310.27;218501;1281;22720;-70
2022/01/09 10:22:41;;;;;;;29.20;14.60;;;;;;;1.38;68.24;97304.05;218557;1279;23793;-70
2022/01/09 10:27:50;;;;;;;33.00;16.40;;;;;;;1.52;68.27;97304.73;219607;1280;22557;-70
2022/01/09 10:33:23;;;;;;;26.50;14.80;;;;;;;1.65;68.10;97304.30;218489;1280;22573;-70
2022/01/09 10:38:30;;;;;;;29.90;13.60;;;;;;;1.76;67.50;97303.02;218361;1279;24324;-71
2022/01/09 10:43:39;;;;;;;21.00;11.10;;;;;;;1.86;67.13;97298.52;218382;1281;24311;-70
2022/01/09 10:49:20;;;;;;;;;;;;;;;;;;;;;
2022/01/09 10:54:35;;;;;;;19.20;9.60;;;;;;;2.06;66.52;97298.19;218478;1280;22550;-69
2022/01/09 10:59:50;;;;;;;17.40;9.50;;;;;;;2.14;65.97;97296.38;218406;1279;24363;-70
2022/01/09 11:05:35;;;;;;;;;;;;;;;;;;;;;
2022/01/09 11:11:17;;;;;;;21.20;9.70;;;;;;;2.25;64.98;97290.95;218319;1280;22756;-69
2022/01/09 11:16:51;;;;;;;18.60;9.30;;;;;;;2.30;64.91;97286.80;218581;1281;25406;-70
2022/01/09 11:22:20;;;;;;;20.20;9.80;;;;;;;2.44;64.94;97294.71;218355;1280;22585;-70
2022/01/09 11:28:29;;;;;;;16.80;8.80;;;;;;;2.62;64.19;97294.27;218511;1279;22731;-70
2022/01/09 11:34:14;;;;;;;16.50;8.30;;;;;;;2.72;63.85;97293.69;219396;1279;22596;-70
2022/01/09 11:39:35;;;;;;;13.80;8.30;;;;;;;2.80;63.81;97292.21;218463;1279;25521;-70
2022/01/09 11:44:50;;;;;;;;;;;;;;;2.88;63.63;97293.11;218546;1279;25340;-70
2022/01/09 11:49:56;;;;;;;15.10;8.20;;;;;;;2.90;63.25;97294.05;218377;1281;26528;-70
2022/01/09 12:02:02;;;;;;;;;;;;;;;;;;;;;
2022/01/09 12:08:25;;;;;;;8.10;3.80;;;;;;;3.15;62.27;97290.34;219575;1279;23235;-69
2022/01/09 12:15:08;;;;;;;;;;;;;;;;;;;;;
2022/01/09 12:21:02;;;;;;;10.20;5.10;;;;;;;3.28;61.52;97283.95;218455;1281;25086;-70
2022/01/09 12:26:45;;;;;;;6.80;4.00;;;;;;;3.24;61.22;97279.27;218408;1279;22609;-73
2022/01/09 12:31:49;;;;;;;9.10;4.10;;;;;;;3.17;60.87;97276.94;219287;1281;24232;-69
2022/01/09 12:37:01;;;;;;;7.40;4.00;;;;;;;3.10;60.75;97275.89;218319;1281;25521;-69
2022/01/09 12:42:10;;;;;;;8.40;4.60;;;;;;;3.03;60.68;97274.82;218270;1279;22553;-70
2022/01/09 12:47:18;;;;;;;8.10;4.90;;;;;;;2.94;60.64;97274.29;218200;1281;22780;-69
2022/01/09 12:52:44;;;;;;;8.60;4.80;;;;;;;2.87;60.63;97276.94;218139;1281;22650;-69
2022/01/09 12:58:31;;;;;;;7.30;4.40;;;;;;;2.86;60.76;97272.51;218400;1279;22590;-69
2022/01/09 13:04:00;;;;;;;8.90;4.50;;;;;;;2.85;60.63;97275.20;218276;1281;24248;-70
2022/01/09 13:09:26;;;;;;;;;;;;;;;;;;;;;
2022/01/09 13:14:51;;;;;;;7.00;4.40;;;;;;;2.87;60.30;97279.85;218373;1279;24337;-70
2022/01/09 13:20:06;;;;;;;7.60;4.20;;;;;;;2.84;60.26;97281.09;218470;1279;22624;-70
2022/01/09 13:25:22;;;;;;;7.30;4.50;;;;;;;2.77;60.20;97281.59;218130;1279;22638;-69
2022/01/09 13:31:18;;;;;;;12.90;5.00;;;;;;;2.67;60.32;97289.59;218262;1279;22599;-69
2022/01/09 13:37:35;;;;;;;;;;;;;;;2.55;60.45;97298.32;218332;1279;24766;-70
2022/01/09 13:43:13;;;;;;;13.10;5.60;;;;;;;2.42;60.55;97303.46;218354;1279;22716;-70
2022/01/09 13:49:01;;;;;;;;;;;;;;;;;;;;;
2022/01/09 13:54:23;;;;;;;;;;;;;;;;;;;;;
2022/01/09 14:00:01;;;;;;;18.40;8.30;;;;;;;2.09;61.14;97313.09;218262;1279;23235;-70
2022/01/09 14:06:01;;;;;;;14.60;7.10;;;;;;;1.97;61.19;97314.70;219516;1279;26518;-70
2022/01/09 14:11:44;;;;;;;14.80;7.40;;;;;;;1.86;61.55;97319.85;219125;1281;22576;-70
2022/01/09 14:23:26;;;;;;;19.40;9.70;;;;;;;1.56;61.98;97324.58;218857;1281;24167;-69
2022/01/09 14:29:02;;;;;;;20.80;10.20;;;;;;;1.41;62.18;97337.36;218438;1279;23881;-70
2022/01/09 14:34:14;;;;;;;25.80;11.90;;;;;;;1.28;62.74;97339.25;218010;1279;24301;-70
2022/01/09 14:39:16;;;;;;;30.10;12.40;;;;;;;1.20;62.84;97351.02;218397;1279;22630;-70
2022/01/09 14:44:53;;;;;;;26.00;11.60;;;;;;;1.19;63.06;97354.02;219363;1279;22566;-71
2022/01/09 14:50:16;;;;;;;27.30;10.80;;;;;;;1.24;63.03;97358.23;218405;1279;24467;-69
2022/01/09 14:55:18;;;;;;;24.90;12.40;;;;;;;1.33;63.30;97366.80;218343;1278;24403;-71
2022/01/09 15:00:54;;;;;;;;;;;;;;;;;;;;;
2022/01/09 15:06:40;;;;;;;;;;;;;;;;;;;;;
2022/01/09 15:12:31;;;;;;;32.90;16.60;;;;;;;1.45;62.96;97379.75;218253;1279;22562;-70
2022/01/09 15:18:35;;;;;;;37.80;17.90;;;;;;;1.43;62.85;97385.11;218360;1279;22619;-70
2022/01/09 15:24:54;;;;;;;35.40;15.60;;;;;;;1.40;62.81;97391.03;218059;1279;25284;-70
2022/01/09 15:31:15;;;;;;;34.10;14.90;;;;;;;1.39;62.55;97395.36;219375;1279;22553;-70
2022/01/09 15:36:49;;;;;;;;;;;;;;;;;;;;;
2022/01/09 15:43:08;;;;;;;;;;;;;;;;;;;;;
2022/01/09 15:49:20;;;;;;;26.00;13.10;;;;;;;1.34;62.06;97412.98;218139;1279;22681;-70
2022/01/09 15:56:08;;;;;;;;;;;;;;;;;;;;;
2022/01/09 16:02:32;;;;;;;25.10;10.40;;;;;;;1.29;62.09;97426.80;217779;1279;26412;-70
2022/01/09 16:08:33;;;;;;;;;;;;;;;;;;;;;
2022/01/09 16:14:45;;;;;;;23.70;11.30;;;;;;;1.26;62.35;97443.98;218520;1279;25399;-70
2022/01/09 16:20:26;;;;;;;25.20;11.90;;;;;;;1.23;62.23;97449.57;218318;1279;25330;-70
2022/01/09 16:26:28;;;;;;;;;;;;;;;;;;;;;
2022/01/09 16:32:05;;;;;;;25.90;11.40;;;;;;;1.13;62.71;97457.19;218354;1279;22580;-71
2022/01/09 16:38:05;;;;;;;23.00;10.40;;;;;;;1.08;63.21;97454.81;218340;1279;25177;-70
2022/01/09 16:44:14;;;;;;;;;;;;;;;;;;;;;
2022/01/09 16:50:31;;;;;;;;;;;;;;;;;;;;;
2022/01/09 17:02:29;;;;;;;;;;;;;;;;;;;;;
2022/01/09 17:08:50;;;;;;;;;;;;;;;;;;;;;
2022/01/09 17:15:14;;;;;;;19.40;9.70;;;;;;;0.99;65.42;97489.89;219388;1278;24319;-70
2022/01/09 17:21:45;;;;;;;15.90;8.00;;;;;;;0.93;65.86;97494.56;218485;1279;22590;-70
2022/01/09 17:28:01;;;;;;;15.10;7.60;;;;;;;0.82;66.49;97503.36;218267;1279;25264;-70
2022/01/09 17:33:34;;;;;;;;;;;;;;;;;;;;;
2022/01/09 17:39:30;;;;;;;14.30;7.50;;;;;;;0.81;67.29;97510.47;218435;1279;22564;-71
2022/01/09 17:44:51;;;;;;;16.00;7.30;;;;;;;0.82;67.32;97509.59;218281;1279;24315;-69
2022/01/09 17:51:00;;;;;;;;;;;;;;;;;;;;;
2022/01/09 17:56:12;;;;;;;21.70;8.70;;;;;;;0.82;67.78;97517.48;218142;1279;25527;-70
2022/01/09 18:01:35;;;;;;;;;;;;;;;;;;;;;
2022/01/09 18:07:14;;;;;;;16.10;7.90;;;;;;;0.80;67.98;97535.36;218389;1279;24435;-69
2022/01/09 18:18:12;;;;;;;18.40;8.40;;;;;;;0.78;68.45;97545.48;218411;1279;25290;-70
2022/01/09 18:23:53;;;;;;;17.80;8.10;;;;;;;0.79;68.50;97553.75;218459;1279;25423;-69
2022/01/09 18:29:16;;;;;;;;;;;;;;;;;;;;;
2022/01/09 18:35:03;;;;;;;26.00;12.00;;;;;;;0.88;68.88;97558.56;219465;1279;24268;-70
2022/01/09 18:40:16;;;;;;;25.10;11.50;;;;;;;0.93;68.85;97571.56;218426;1279;22588;-70
2022/01/09 18:45:44;;;;;;;25.50;12.50;;;;;;;0.96;68.94;97576.48;218443;1279;22551;-70
2022/01/09 18:51:29;;;;;;;24.50;13.60;;;;;;;0.97;69.03;97573.54;219337;1279;22765;-69
2022/01/09 18:56:48;;;;;;;36.10;17.00;;;;;;;1.01;69.05;97574.40;218622;1278;22792;-71
2022/01/09 19:02:54;;;;;;;;;;;;;;;;;;;;;
2022/01/09 19:09:04;;;;;;;31.10;15.00;;;;;;;1.03;69.09;97585.70;218565;1279;23030;-70
2022/01/09 19:14:32;;;;;;;38.20;16.50;;;;;;;0.99;69.33;97596.13;218169;1279;24266;-71
2022/01/09 19:20:24;;;;;;;;;;;;;;;;;;;;;
2022/01/09 19:26:41;;;;;;;30.30;13.80;;;;;;;0.84;69.32;97602.79;218818;1279;24356;-70
2022/01/09 19:32:51;;;;;;;31.60;16.40;;;;;;;0.83;69.90;97610.27;218210;1279;22550;-70
2022/01/09 19:37:54;;;;;;;37.30;16.80;;;;;;;0.86;69.94;97610.55;218453;1279;24418;-70
2022/01/09 19:42:57;;;;;;;42.30;18.40;;;;;;;0.91;70.25;97618.64;218414;1279;22820;-69
2022/01/09 19:48:08;;;;;;;39.80;18.20;;;;;;;0.94;70.14;97618.88;218586;1279;25435;-69
2022/01/09 19:54:04;;;;;;;;;;;;;;;;;;;;;
2022/01/09 20:05:28;;;;;;;44.70;19.40;;;;;;;0.97;70.02;97636.09;218405;1279;22671;-70
2022/01/09 20:10:50;;;;;;;44.70;19.50;;;;;;;0.93;70.04;97643.98;218306;1279;22600;-70
2022/01/09 20:15:55;;;;;;;35.40;17.00;;;;;;;0.93;70.14;97646.30;218284;1279;22548;-72
2022/01/09 20:21:32;;;;;;;37.50;18.00;;;;;;;0.87;69.93;97651.05;214496;1279;5479849;-70
2022/01/09 20:27:24;;;;;;;37.70;18.30;;;;;;;0.72;69.83;97655.58;219547;1279;22727;-70
2022/01/09 20:33:25;;;;;;;44.30;19.80;;;;;;;0.65;70.17;97661.02;218316;1279;22598;-70
2022/01/09 20:45:51;;;;;;;59.40;25.80;;;;;;;0.74;70.74;97668.98;219325;1279;25502;-70
2022/01/09 20:51:10;;;;;;;64.50;25.80;;;;;;;0.80;71.01;97673.09;218391;1279;25274;-69
2022/01/09 20:56:27;;;;;;;;;;;;;;;;;;;;;
2022/01/09 21:01:30;;;;;;;51.60;23.10;;;;;;;0.89;70.96;97686.82;218422;1279;23000;-70
2022/01/09 21:07:33;;;;;;;56.50;24.60;;;;;;;0.91;70.81;97695.11;218537;1279;22576;-70
2022/01/09 21:13:00;;;;;;;50.80;23.00;;;;;;;0.94;70.91;97695.30;218450;1279;22574;-70
2022/01/09 21:19:00;;;;;;;44.30;21.40;;;;;;;0.93;70.75;97702.93;218252;1279;22560;-69
2022/01/09 21:24:40;;;;;;;41.40;18.30;;;;;;;0.92;71.00;97709.89;218456;1279;24277;-70
2022/01/09 21:30:03;;;;;;;41.40;18.50;;;;;;;0.90;70.87;97710.62;218270;1279;24312;-69
2022/01/09 21:35:48;;;;;;;44.60;20.40;;;;;;;0.82;70.84;97715.20;218082;1279;26578;-71
2022/01/09 21:48:19;;;;;;;39.50;17.60;;;;;;;0.80;71.17;97725.81;219380;1279;22701;-70
2022/01/09 21:54:41;;;;;;;;;;;;;;;;;;;;;
2022/01/09 22:01:14;;;;;;;32.80;15.70;;;;;;;0.64;72.01;97742.76;217955;1281;24296;-70
2022/01/09 22:07:28;;;;;;;35.30;15.50;;;;;;;0.60;72.27;97746.83;218202;1279;25341;-70
2022/01/09 22:13:52;;;;;;;39.60;16.50;;;;;;;0.57;72.32;97752.80;218295;1279;22550;-70
2022/01/09 22:20:02;;;;;;;37.00;17.00;;;;;;;0.59;72.77;97751.98;218069;1281;22573;-70
2022/01/09 22:25:41;;;;;;;38.50;16.90;;;;;;;0.67;73.04;97759.34;218089;1279;24856;-71
2022/01/09 22:37:02;;;;;;;29.40;14.40;;;;;;;0.73;72.91;97771.10;218285;1279;22791;-70
2022/01/09 22:43:29;;;;;;;30.70;13.60;;;;;;;0.69;72.95;97772.11;219145;1279;22562;-71
2022/01/09 22:49:09;;;;;;;;;;;;;;;;;;;;;
2022/01/09 22:54:58;;;;;;;30.60;15.20;;;;;;;0.68;73.51;97787.66;218279;1279;25400;-70
2022/01/09 23:01:04;;;;;;;30.70;14.60;;;;;;;0.76;73.74;97794.29;218273;1279;24809;-70
2022/01/09 23:07:07;;;;;;;27.50;14.20;;;;;;;0.84;73.87;97801.59;218112;1279;22556;-70
2022/01/09 23:13:01;;;;;;;29.10;14.20;;;;;;;0.88;73.48;97805.77;218392;1279;24248;-70
2022/01/09 23:19:25;;;;;;;26.90;13.80;;;;;;;0.87;73.58;97811.20;218683;1281;24333;-70
2022/01/09 23:32:19;;;;;;;25.30;12.30;;;;;;;0.83;73.57;97827.68;218135;1281;22562;-70
2022/01/09 23:38:10;;;;;;;20.80;10.90;;;;;;;0.83;73.71;97840.86;218305;1281;25367;-70
2022/01/09 23:43:50;;;;;;;22.50;11.80;;;;;;;0.88;73.74;97850.61;218275;1279;24423;-70
